sensor_id;sensor_type;location;lat;lon;timestamp;P1;durP1;ratioP1;P2;durP2;ratioP2
23115;SDS011;11727;52.134;5.052;2022-09-13T00:00:36;4.07;;;2.90;;
23115;SDS011;11727;52.134;5.052;2022-09-13T00:03:02;4.72;;;2.90;;
23115;SDS011;11727;52.134;5.052;2022-09-13T00:05:28;5.60;;;3.55;;
23115;SDS011;11727;52.134;5.052;2022-09-13T00:07:54;7.28;;;3.42;;
23115;SDS011;11727;52.134;5.052;2022-09-13T00:10:20;5.55;;;3.60;;
23115;SDS011;11727;52.134;5.052;2022-09-13T00:12:46;6.53;;;3.40;;
23115;SDS011;11727;52.134;5.052;2022-09-13T00:15:13;10.80;;;6.63;;
23115;SDS011;11727;52.134;5.052;2022-09-13T00:17:39;6.78;;;4.28;;
23115;SDS011;11727;52.134;5.052;2022-09-13T00:20:05;10.38;;;4.78;;
23115;SDS011;11727;52.134;5.052;2022-09-13T00:22:31;12.13;;;5.40;;
23115;SDS011;11727;52.134;5.052;2022-09-13T00:24:56;9.68;;;5.93;;
23115;SDS011;11727;52.134;5.052;2022-09-13T00:27:25;11.18;;;5.28;;
23115;SDS011;11727;52.134;5.052;2022-09-13T00:29:50;8.25;;;5.22;;
23115;SDS011;11727;52.134;5.052;2022-09-13T00:32:16;7.90;;;5.18;;
23115;SDS011;11727;52.134;5.052;2022-09-13T00:34:42;9.45;;;5.50;;
23115;SDS011;11727;52.134;5.052;2022-09-13T00:37:07;10.85;;;6.22;;
23115;SDS011;11727;52.134;5.052;2022-09-13T00:39:33;10.57;;;6.38;;
23115;SDS011;11727;52.134;5.052;2022-09-13T00:41:59;12.05;;;6.20;;
23115;SDS011;11727;52.134;5.052;2022-09-13T00:50:21;11.57;;;6.30;;
23115;SDS011;11727;52.134;5.052;2022-09-13T00:52:50;11.25;;;5.13;;
23115;SDS011;11727;52.134;5.052;2022-09-13T00:57:48;11.32;;;5.90;;
23115;SDS011;11727;52.134;5.052;2022-09-13T01:00:15;11.18;;;5.28;;
23115;SDS011;11727;52.134;5.052;2022-09-13T01:02:46;11.13;;;6.13;;
23115;SDS011;11727;52.134;5.052;2022-09-13T01:05:17;11.43;;;5.35;;
23115;SDS011;11727;52.134;5.052;2022-09-13T01:07:46;11.15;;;5.70;;
23115;SDS011;11727;52.134;5.052;2022-09-13T01:10:12;8.68;;;5.35;;
23115;SDS011;11727;52.134;5.052;2022-09-13T01:12:55;11.52;;;5.43;;
23115;SDS011;11727;52.134;5.052;2022-09-13T01:15:30;13.43;;;6.53;;
23115;SDS011;11727;52.134;5.052;2022-09-13T01:17:55;13.45;;;7.28;;
23115;SDS011;11727;52.134;5.052;2022-09-13T01:20:23;9.98;;;6.90;;
23115;SDS011;11727;52.134;5.052;2022-09-13T01:29:19;17.20;;;9.27;;
23115;SDS011;11727;52.134;5.052;2022-09-13T01:34:48;13.82;;;8.05;;
23115;SDS011;11727;52.134;5.052;2022-09-13T01:37:38;14.38;;;7.93;;
23115;SDS011;11727;52.134;5.052;2022-09-13T01:40:23;14.82;;;8.57;;
23115;SDS011;11727;52.134;5.052;2022-09-13T01:43:19;12.50;;;7.10;;
23115;SDS011;11727;52.134;5.052;2022-09-13T01:46:08;14.25;;;7.68;;
23115;SDS011;11727;52.134;5.052;2022-09-13T01:48:59;17.00;;;8.50;;
23115;SDS011;11727;52.134;5.052;2022-09-13T01:54:20;17.40;;;8.13;;
23115;SDS011;11727;52.134;5.052;2022-09-13T01:57:05;15.95;;;8.50;;
23115;SDS011;11727;52.134;5.052;2022-09-13T02:02:09;17.77;;;9.38;;
23115;SDS011;11727;52.134;5.052;2022-09-13T02:04:45;14.77;;;8.10;;
23115;SDS011;11727;52.134;5.052;2022-09-13T02:07:23;13.32;;;8.85;;
23115;SDS011;11727;52.134;5.052;2022-09-13T02:09:59;17.80;;;8.40;;
23115;SDS011;11727;52.134;5.052;2022-09-13T02:12:35;12.10;;;7.28;;
23115;SDS011;11727;52.134;5.052;2022-09-13T02:15:15;16.48;;;8.80;;
23115;SDS011;11727;52.134;5.052;2022-09-13T02:17:46;15.77;;;7.78;;
23115;SDS011;11727;52.134;5.052;2022-09-13T02:20:27;15.32;;;7.93;;
23115;SDS011;11727;52.134;5.052;2022-09-13T02:22:58;16.42;;;8.88;;
23115;SDS011;11727;52.134;5.052;2022-09-13T02:25:29;15.35;;;9.82;;
23115;SDS011;11727;52.134;5.052;2022-09-13T02:27:58;16.83;;;9.50;;
23115;SDS011;11727;52.134;5.052;2022-09-13T02:30:27;14.50;;;8.15;;
23115;SDS011;11727;52.134;5.052;2022-09-13T02:33:17;13.40;;;8.18;;
23115;SDS011;11727;52.134;5.052;2022-09-13T02:35:48;14.02;;;8.52;;
23115;SDS011;11727;52.134;5.052;2022-09-13T02:38:25;15.45;;;8.73;;
23115;SDS011;11727;52.134;5.052;2022-09-13T02:41:05;16.52;;;8.82;;
23115;SDS011;11727;52.134;5.052;2022-09-13T02:43:36;19.38;;;9.88;;
23115;SDS011;11727;52.134;5.052;2022-09-13T02:46:12;20.75;;;9.65;;
23115;SDS011;11727;52.134;5.052;2022-09-13T02:48:49;18.27;;;9.25;;
23115;SDS011;11727;52.134;5.052;2022-09-13T02:54:24;14.43;;;9.45;;
23115;SDS011;11727;52.134;5.052;2022-09-13T02:57:06;19.43;;;9.13;;
23115;SDS011;11727;52.134;5.052;2022-09-13T02:59:38;16.33;;;8.52;;
23115;SDS011;11727;52.134;5.052;2022-09-13T03:02:05;17.30;;;9.10;;
23115;SDS011;11727;52.134;5.052;2022-09-13T03:04:34;19.02;;;8.82;;
23115;SDS011;11727;52.134;5.052;2022-09-13T03:07:00;15.05;;;8.57;;
23115;SDS011;11727;52.134;5.052;2022-09-13T03:09:30;15.40;;;8.15;;
23115;SDS011;11727;52.134;5.052;2022-09-13T03:17:46;18.05;;;9.10;;
23115;SDS011;11727;52.134;5.052;2022-09-13T03:31:32;17.73;;;9.40;;
23115;SDS011;11727;52.134;5.052;2022-09-13T03:36:55;17.27;;;9.13;;
23115;SDS011;11727;52.134;5.052;2022-09-13T03:42:26;15.80;;;8.98;;
23115;SDS011;11727;52.134;5.052;2022-09-13T03:44:57;16.52;;;8.98;;
23115;SDS011;11727;52.134;5.052;2022-09-13T03:47:25;16.98;;;9.52;;
23115;SDS011;11727;52.134;5.052;2022-09-13T03:49:54;15.35;;;9.05;;
23115;SDS011;11727;52.134;5.052;2022-09-13T03:52:21;20.80;;;10.65;;
23115;SDS011;11727;52.134;5.052;2022-09-13T03:54:48;16.45;;;9.18;;
23115;SDS011;11727;52.134;5.052;2022-09-13T03:57:15;18.02;;;9.40;;
23115;SDS011;11727;52.134;5.052;2022-09-13T03:59:46;16.80;;;8.63;;
23115;SDS011;11727;52.134;5.052;2022-09-13T04:02:16;21.30;;;10.88;;
23115;SDS011;11727;52.134;5.052;2022-09-13T04:04:43;17.67;;;9.95;;
23115;SDS011;11727;52.134;5.052;2022-09-13T04:07:10;19.55;;;9.90;;
23115;SDS011;11727;52.134;5.052;2022-09-13T04:09:40;15.48;;;9.40;;
23115;SDS011;11727;52.134;5.052;2022-09-13T04:12:06;22.13;;;10.52;;
23115;SDS011;11727;52.134;5.052;2022-09-13T04:16:59;23.00;;;9.98;;
23115;SDS011;11727;52.134;5.052;2022-09-13T04:19:25;17.17;;;9.05;;
23115;SDS011;11727;52.134;5.052;2022-09-13T04:21:51;19.35;;;10.05;;
23115;SDS011;11727;52.134;5.052;2022-09-13T04:24:18;25.50;;;11.13;;
23115;SDS011;11727;52.134;5.052;2022-09-13T04:26:47;18.95;;;10.20;;
23115;SDS011;11727;52.134;5.052;2022-09-13T04:29:15;17.70;;;10.38;;
23115;SDS011;11727;52.134;5.052;2022-09-13T04:31:44;20.98;;;11.27;;
23115;SDS011;11727;52.134;5.052;2022-09-13T04:34:11;25.48;;;11.65;;
23115;SDS011;11727;52.134;5.052;2022-09-13T04:36:38;23.27;;;12.15;;
23115;SDS011;11727;52.134;5.052;2022-09-13T04:39:04;21.00;;;10.82;;
23115;SDS011;11727;52.134;5.052;2022-09-13T04:41:29;17.52;;;10.18;;
23115;SDS011;11727;52.134;5.052;2022-09-13T04:43:57;24.00;;;11.93;;
23115;SDS011;11727;52.134;5.052;2022-09-13T04:46:22;19.80;;;12.25;;
23115;SDS011;11727;52.134;5.052;2022-09-13T04:48:48;23.23;;;11.55;;
23115;SDS011;11727;52.134;5.052;2022-09-13T04:51:15;24.52;;;12.73;;
23115;SDS011;11727;52.134;5.052;2022-09-13T04:53:42;27.02;;;12.63;;
23115;SDS011;11727;52.134;5.052;2022-09-13T04:56:08;26.85;;;13.48;;
23115;SDS011;11727;52.134;5.052;2022-09-13T04:58:35;22.65;;;11.75;;
23115;SDS011;11727;52.134;5.052;2022-09-13T05:01:01;26.17;;;12.05;;
23115;SDS011;11727;52.134;5.052;2022-09-13T05:03:31;22.83;;;11.27;;
23115;SDS011;11727;52.134;5.052;2022-09-13T05:06:04;20.90;;;11.00;;
23115;SDS011;11727;52.134;5.052;2022-09-13T05:08:31;20.52;;;10.27;;
23115;SDS011;11727;52.134;5.052;2022-09-13T05:10:57;20.02;;;10.48;;
23115;SDS011;11727;52.134;5.052;2022-09-13T05:13:23;21.40;;;11.57;;
23115;SDS011;11727;52.134;5.052;2022-09-13T05:15:53;21.05;;;11.07;;
23115;SDS011;11727;52.134;5.052;2022-09-13T05:18:20;21.17;;;12.15;;
23115;SDS011;11727;52.134;5.052;2022-09-13T05:20:46;25.27;;;11.95;;
23115;SDS011;11727;52.134;5.052;2022-09-13T05:23:12;26.52;;;12.95;;
23115;SDS011;11727;52.134;5.052;2022-09-13T05:25:37;23.50;;;12.77;;
23115;SDS011;11727;52.134;5.052;2022-09-13T05:28:03;24.38;;;12.52;;
23115;SDS011;11727;52.134;5.052;2022-09-13T05:30:29;24.77;;;12.13;;
23115;SDS011;11727;52.134;5.052;2022-09-13T05:32:55;21.15;;;12.88;;
23115;SDS011;11727;52.134;5.052;2022-09-13T05:35:22;24.60;;;13.43;;
23115;SDS011;11727;52.134;5.052;2022-09-13T05:37:47;25.40;;;13.15;;
23115;SDS011;11727;52.134;5.052;2022-09-13T05:40:13;28.70;;;14.93;;
23115;SDS011;11727;52.134;5.052;2022-09-13T05:42:39;30.58;;;13.55;;
23115;SDS011;11727;52.134;5.052;2022-09-13T05:45:05;29.65;;;13.30;;
23115;SDS011;11727;52.134;5.052;2022-09-13T05:47:31;27.80;;;13.30;;
23115;SDS011;11727;52.134;5.052;2022-09-13T05:49:56;28.38;;;13.25;;
23115;SDS011;11727;52.134;5.052;2022-09-13T05:52:22;21.40;;;11.52;;
23115;SDS011;11727;52.134;5.052;2022-09-13T05:54:49;21.92;;;11.40;;
23115;SDS011;11727;52.134;5.052;2022-09-13T05:57:14;27.80;;;10.90;;
23115;SDS011;11727;52.134;5.052;2022-09-13T05:59:40;22.08;;;12.55;;
23115;SDS011;11727;52.134;5.052;2022-09-13T06:02:05;21.08;;;10.88;;
23115;SDS011;11727;52.134;5.052;2022-09-13T06:04:34;21.40;;;12.00;;
23115;SDS011;11727;52.134;5.052;2022-09-13T06:06:59;22.07;;;11.30;;
23115;SDS011;11727;52.134;5.052;2022-09-13T06:09:25;19.65;;;11.98;;
23115;SDS011;11727;52.134;5.052;2022-09-13T06:11:50;21.98;;;11.18;;
23115;SDS011;11727;52.134;5.052;2022-09-13T06:14:16;22.70;;;12.15;;
23115;SDS011;11727;52.134;5.052;2022-09-13T06:16:41;26.35;;;13.50;;
23115;SDS011;11727;52.134;5.052;2022-09-13T06:19:07;18.63;;;10.95;;
23115;SDS011;11727;52.134;5.052;2022-09-13T06:21:33;23.05;;;10.75;;
23115;SDS011;11727;52.134;5.052;2022-09-13T06:23:58;20.48;;;11.65;;
23115;SDS011;11727;52.134;5.052;2022-09-13T06:26:25;23.63;;;11.55;;
23115;SDS011;11727;52.134;5.052;2022-09-13T06:28:52;23.75;;;12.05;;
23115;SDS011;11727;52.134;5.052;2022-09-13T06:31:21;20.58;;;11.43;;
23115;SDS011;11727;52.134;5.052;2022-09-13T06:33:54;22.05;;;11.65;;
23115;SDS011;11727;52.134;5.052;2022-09-13T06:36:21;18.45;;;9.70;;
23115;SDS011;11727;52.134;5.052;2022-09-13T06:38:47;21.45;;;11.15;;
23115;SDS011;11727;52.134;5.052;2022-09-13T06:41:16;20.20;;;10.25;;
23115;SDS011;11727;52.134;5.052;2022-09-13T06:43:44;24.33;;;11.32;;
23115;SDS011;11727;52.134;5.052;2022-09-13T06:46:11;20.40;;;11.15;;
23115;SDS011;11727;52.134;5.052;2022-09-13T06:48:41;21.25;;;10.20;;
23115;SDS011;11727;52.134;5.052;2022-09-13T06:51:09;17.15;;;10.13;;
23115;SDS011;11727;52.134;5.052;2022-09-13T06:53:38;18.30;;;9.05;;
23115;SDS011;11727;52.134;5.052;2022-09-13T06:58:35;16.92;;;9.50;;
23115;SDS011;11727;52.134;5.052;2022-09-13T07:03:45;22.05;;;9.20;;
23115;SDS011;11727;52.134;5.052;2022-09-13T07:06:13;16.33;;;9.57;;
23115;SDS011;11727;52.134;5.052;2022-09-13T07:08:44;17.02;;;8.77;;
23115;SDS011;11727;52.134;5.052;2022-09-13T07:11:11;17.60;;;9.07;;
23115;SDS011;11727;52.134;5.052;2022-09-13T07:13:38;21.10;;;9.98;;
23115;SDS011;11727;52.134;5.052;2022-09-13T07:16:05;16.35;;;9.40;;
23115;SDS011;11727;52.134;5.052;2022-09-13T07:18:32;23.25;;;8.65;;
23115;SDS011;11727;52.134;5.052;2022-09-13T07:21:08;18.10;;;8.95;;
23115;SDS011;11727;52.134;5.052;2022-09-13T07:23:36;16.50;;;8.40;;
23115;SDS011;11727;52.134;5.052;2022-09-13T07:26:03;15.70;;;8.18;;
23115;SDS011;11727;52.134;5.052;2022-09-13T07:28:31;16.45;;;6.88;;
23115;SDS011;11727;52.134;5.052;2022-09-13T07:31:06;14.63;;;7.68;;
23115;SDS011;11727;52.134;5.052;2022-09-13T07:33:37;14.27;;;6.25;;
23115;SDS011;11727;52.134;5.052;2022-09-13T07:36:04;9.63;;;6.00;;
23115;SDS011;11727;52.134;5.052;2022-09-13T07:38:37;15.25;;;5.93;;
23115;SDS011;11727;52.134;5.052;2022-09-13T07:41:05;9.77;;;5.68;;
23115;SDS011;11727;52.134;5.052;2022-09-13T07:43:34;11.38;;;5.90;;
23115;SDS011;11727;52.134;5.052;2022-09-13T07:46:01;11.80;;;5.60;;
23115;SDS011;11727;52.134;5.052;2022-09-13T07:48:31;8.23;;;4.47;;
23115;SDS011;11727;52.134;5.052;2022-09-13T07:53:26;7.72;;;4.50;;
23115;SDS011;11727;52.134;5.052;2022-09-13T07:55:52;8.90;;;3.75;;
23115;SDS011;11727;52.134;5.052;2022-09-13T07:58:18;4.75;;;2.53;;
23115;SDS011;11727;52.134;5.052;2022-09-13T08:00:44;6.53;;;3.38;;
23115;SDS011;11727;52.134;5.052;2022-09-13T08:03:10;6.15;;;2.10;;
23115;SDS011;11727;52.134;5.052;2022-09-13T08:05:39;5.75;;;2.92;;
23115;SDS011;11727;52.134;5.052;2022-09-13T08:08:05;7.88;;;2.55;;
23115;SDS011;11727;52.134;5.052;2022-09-13T08:10:32;6.50;;;2.60;;
23115;SDS011;11727;52.134;5.052;2022-09-13T08:12:58;7.03;;;3.13;;
23115;SDS011;11727;52.134;5.052;2022-09-13T08:15:24;6.03;;;3.13;;
23115;SDS011;11727;52.134;5.052;2022-09-13T08:17:50;8.48;;;2.40;;
23115;SDS011;11727;52.134;5.052;2022-09-13T08:20:17;3.65;;;2.53;;
23115;SDS011;11727;52.134;5.052;2022-09-13T08:22:45;3.92;;;2.08;;
23115;SDS011;11727;52.134;5.052;2022-09-13T08:25:11;16.60;;;2.60;;
23115;SDS011;11727;52.134;5.052;2022-09-13T08:27:36;7.65;;;2.88;;
23115;SDS011;11727;52.134;5.052;2022-09-13T08:30:02;3.63;;;2.13;;
23115;SDS011;11727;52.134;5.052;2022-09-13T08:32:28;2.88;;;1.70;;
23115;SDS011;11727;52.134;5.052;2022-09-13T08:34:54;3.50;;;1.67;;
23115;SDS011;11727;52.134;5.052;2022-09-13T08:37:20;4.30;;;2.35;;
23115;SDS011;11727;52.134;5.052;2022-09-13T08:39:45;5.13;;;2.25;;
23115;SDS011;11727;52.134;5.052;2022-09-13T08:45:24;5.07;;;1.63;;
23115;SDS011;11727;52.134;5.052;2022-09-13T08:47:57;2.95;;;1.40;;
23115;SDS011;11727;52.134;5.052;2022-09-13T08:50:28;2.53;;;1.20;;
23115;SDS011;11727;52.134;5.052;2022-09-13T08:52:59;9.98;;;1.70;;
23115;SDS011;11727;52.134;5.052;2022-09-13T08:55:39;2.65;;;1.20;;
23115;SDS011;11727;52.134;5.052;2022-09-13T09:00:43;0.95;;;0.60;;
23115;SDS011;11727;52.134;5.052;2022-09-13T09:03:27;1.50;;;0.70;;
23115;SDS011;11727;52.134;5.052;2022-09-13T09:06:00;1.90;;;1.13;;
23115;SDS011;11727;52.134;5.052;2022-09-13T09:08:28;1.42;;;0.85;;
23115;SDS011;11727;52.134;5.052;2022-09-13T09:11:00;3.40;;;1.25;;
23115;SDS011;11727;52.134;5.052;2022-09-13T09:13:36;3.45;;;1.20;;
23115;SDS011;11727;52.134;5.052;2022-09-13T09:21:54;0.80;;;0.57;;
23115;SDS011;11727;52.134;5.052;2022-09-13T09:24:23;1.17;;;0.70;;
23115;SDS011;11727;52.134;5.052;2022-09-13T09:26:51;2.88;;;1.02;;
23115;SDS011;11727;52.134;5.052;2022-09-13T09:29:20;3.70;;;1.10;;
23115;SDS011;11727;52.134;5.052;2022-09-13T09:35:10;2.58;;;0.93;;
23115;SDS011;11727;52.134;5.052;2022-09-13T09:41:04;1.83;;;0.50;;
23115;SDS011;11727;52.134;5.052;2022-09-13T09:43:43;1.55;;;0.80;;
23115;SDS011;11727;52.134;5.052;2022-09-13T09:46:25;1.70;;;0.75;;
23115;SDS011;11727;52.134;5.052;2022-09-13T09:48:55;0.85;;;0.57;;
23115;SDS011;11727;52.134;5.052;2022-09-13T09:51:26;1.42;;;0.60;;
23115;SDS011;11727;52.134;5.052;2022-09-13T09:53:57;1.27;;;0.50;;
23115;SDS011;11727;52.134;5.052;2022-09-13T09:56:32;0.68;;;0.30;;
23115;SDS011;11727;52.134;5.052;2022-09-13T09:58:58;0.30;;;0.30;;
23115;SDS011;11727;52.134;5.052;2022-09-13T10:01:28;1.77;;;0.60;;
23115;SDS011;11727;52.134;5.052;2022-09-13T10:06:36;1.23;;;0.70;;
23115;SDS011;11727;52.134;5.052;2022-09-13T10:09:14;1.67;;;0.50;;
23115;SDS011;11727;52.134;5.052;2022-09-13T10:11:52;1.20;;;0.40;;
23115;SDS011;11727;52.134;5.052;2022-09-13T10:14:37;1.15;;;0.50;;
23115;SDS011;11727;52.134;5.052;2022-09-13T10:22:18;3.78;;;0.90;;
23115;SDS011;11727;52.134;5.052;2022-09-13T10:24:44;3.80;;;1.23;;
23115;SDS011;11727;52.134;5.052;2022-09-13T10:27:21;2.05;;;0.98;;
23115;SDS011;11727;52.134;5.052;2022-09-13T10:29:50;1.55;;;1.02;;
23115;SDS011;11727;52.134;5.052;2022-09-13T10:32:20;1.85;;;0.85;;
23115;SDS011;11727;52.134;5.052;2022-09-13T10:34:46;5.60;;;0.90;;
23115;SDS011;11727;52.134;5.052;2022-09-13T10:37:25;1.70;;;1.10;;
23115;SDS011;11727;52.134;5.052;2022-09-13T10:40:04;1.25;;;0.70;;
23115;SDS011;11727;52.134;5.052;2022-09-13T10:42:36;2.58;;;0.80;;
23115;SDS011;11727;52.134;5.052;2022-09-13T10:45:03;1.70;;;0.80;;
23115;SDS011;11727;52.134;5.052;2022-09-13T10:50:25;1.83;;;0.70;;
23115;SDS011;11727;52.134;5.052;2022-09-13T10:52:52;4.22;;;0.70;;
23115;SDS011;11727;52.134;5.052;2022-09-13T11:00:34;3.13;;;0.90;;
23115;SDS011;11727;52.134;5.052;2022-09-13T11:09:01;1.50;;;0.55;;
23115;SDS011;11727;52.134;5.052;2022-09-13T11:11:50;4.15;;;0.60;;
23115;SDS011;11727;52.134;5.052;2022-09-13T11:25:58;0.73;;;0.52;;
23115;SDS011;11727;52.134;5.052;2022-09-13T11:28:36;0.77;;;0.60;;
23115;SDS011;11727;52.134;5.052;2022-09-13T11:34:18;1.33;;;0.50;;
23115;SDS011;11727;52.134;5.052;2022-09-13T11:37:00;0.88;;;0.43;;
23115;SDS011;11727;52.134;5.052;2022-09-13T11:39:34;1.17;;;0.63;;
23115;SDS011;11727;52.134;5.052;2022-09-13T11:55:51;0.55;;;0.40;;
23115;SDS011;11727;52.134;5.052;2022-09-13T11:58:27;1.38;;;0.50;;
23115;SDS011;11727;52.134;5.052;2022-09-13T12:01:00;4.88;;;0.35;;
23115;SDS011;11727;52.134;5.052;2022-09-13T12:03:31;1.05;;;0.70;;
23115;SDS011;11727;52.134;5.052;2022-09-13T12:06:03;0.88;;;0.60;;
23115;SDS011;11727;52.134;5.052;2022-09-13T12:09:05;0.93;;;0.50;;
23115;SDS011;11727;52.134;5.052;2022-09-13T12:11:41;2.47;;;0.68;;
23115;SDS011;11727;52.134;5.052;2022-09-13T12:14:14;4.03;;;0.70;;
23115;SDS011;11727;52.134;5.052;2022-09-13T12:22:10;3.35;;;0.50;;
23115;SDS011;11727;52.134;5.052;2022-09-13T12:24:39;2.73;;;0.77;;
23115;SDS011;11727;52.134;5.052;2022-09-13T12:32:30;1.90;;;0.52;;
23115;SDS011;11727;52.134;5.052;2022-09-13T12:34:57;1.63;;;0.60;;
23115;SDS011;11727;52.134;5.052;2022-09-13T12:55:01;4.43;;;0.50;;
23115;SDS011;11727;52.134;5.052;2022-09-13T12:58:32;0.70;;;0.32;;
23115;SDS011;11727;52.134;5.052;2022-09-13T13:00:35;2.05;;;0.47;;
23115;SDS011;11727;52.134;5.052;2022-09-13T13:05:42;1.42;;;0.47;;
23115;SDS011;11727;52.134;5.052;2022-09-13T13:08:19;0.40;;;0.20;;
23115;SDS011;11727;52.134;5.052;2022-09-13T13:11:04;2.05;;;0.65;;
23115;SDS011;11727;52.134;5.052;2022-09-13T13:13:45;1.63;;;0.40;;
23115;SDS011;11727;52.134;5.052;2022-09-13T13:18:58;1.85;;;0.30;;
23115;SDS011;11727;52.134;5.052;2022-09-13T13:21:33;4.20;;;0.75;;
23115;SDS011;11727;52.134;5.052;2022-09-13T13:26:54;1.77;;;0.50;;
23115;SDS011;11727;52.134;5.052;2022-09-13T13:29:21;3.20;;;0.40;;
23115;SDS011;11727;52.134;5.052;2022-09-13T13:34:33;3.17;;;0.88;;
23115;SDS011;11727;52.134;5.052;2022-09-13T13:37:22;3.13;;;0.40;;
23115;SDS011;11727;52.134;5.052;2022-09-13T13:40:12;3.70;;;0.63;;
23115;SDS011;11727;52.134;5.052;2022-09-13T13:42:47;2.70;;;0.35;;
23115;SDS011;11727;52.134;5.052;2022-09-13T13:45:15;1.38;;;0.65;;
23115;SDS011;11727;52.134;5.052;2022-09-13T13:47:55;1.42;;;0.32;;
23115;SDS011;11727;52.134;5.052;2022-09-13T13:50:32;1.52;;;0.85;;
23115;SDS011;11727;52.134;5.052;2022-09-13T13:52:58;5.85;;;0.40;;
23115;SDS011;11727;52.134;5.052;2022-09-13T13:55:44;4.38;;;0.43;;
23115;SDS011;11727;52.134;5.052;2022-09-13T13:58:29;2.40;;;0.43;;
23115;SDS011;11727;52.134;5.052;2022-09-13T14:01:02;1.48;;;0.30;;
23115;SDS011;11727;52.134;5.052;2022-09-13T14:03:47;0.77;;;0.30;;
23115;SDS011;11727;52.134;5.052;2022-09-13T14:06:30;1.48;;;0.30;;
23115;SDS011;11727;52.134;5.052;2022-09-13T14:12:05;1.83;;;0.63;;
23115;SDS011;11727;52.134;5.052;2022-09-13T14:14:48;1.48;;;0.68;;
23115;SDS011;11727;52.134;5.052;2022-09-13T14:20:34;1.42;;;0.38;;
23115;SDS011;11727;52.134;5.052;2022-09-13T14:23:15;1.45;;;0.35;;
23115;SDS011;11727;52.134;5.052;2022-09-13T14:25:45;3.65;;;0.70;;
23115;SDS011;11727;52.134;5.052;2022-09-13T14:28:21;1.55;;;0.30;;
23115;SDS011;11727;52.134;5.052;2022-09-13T14:30:47;1.27;;;0.30;;
23115;SDS011;11727;52.134;5.052;2022-09-13T14:33:22;1.80;;;0.38;;
23115;SDS011;11727;52.134;5.052;2022-09-13T14:36:03;1.80;;;0.73;;
23115;SDS011;11727;52.134;5.052;2022-09-13T14:38:31;5.68;;;0.57;;
23115;SDS011;11727;52.134;5.052;2022-09-13T14:41:20;2.22;;;0.40;;
23115;SDS011;11727;52.134;5.052;2022-09-13T14:43:46;3.30;;;0.38;;
23115;SDS011;11727;52.134;5.052;2022-09-13T14:49:00;2.15;;;0.30;;
23115;SDS011;11727;52.134;5.052;2022-09-13T14:51:36;1.17;;;0.28;;
23115;SDS011;11727;52.134;5.052;2022-09-13T14:54:14;0.90;;;0.47;;
23115;SDS011;11727;52.134;5.052;2022-09-13T14:56:45;1.10;;;0.30;;
23115;SDS011;11727;52.134;5.052;2022-09-13T14:59:57;0.65;;;0.28;;
23115;SDS011;11727;52.134;5.052;2022-09-13T15:02:25;1.40;;;0.20;;
23115;SDS011;11727;52.134;5.052;2022-09-13T15:04:55;1.60;;;0.40;;
23115;SDS011;11727;52.134;5.052;2022-09-13T15:07:41;0.88;;;0.28;;
23115;SDS011;11727;52.134;5.052;2022-09-13T15:12:52;0.68;;;0.20;;
23115;SDS011;11727;52.134;5.052;2022-09-13T15:23:39;1.50;;;0.32;;
23115;SDS011;11727;52.134;5.052;2022-09-13T15:31:05;0.28;;;0.22;;
23115;SDS011;11727;52.134;5.052;2022-09-13T15:33:32;0.73;;;0.20;;
23115;SDS011;11727;52.134;5.052;2022-09-13T15:36:21;0.20;;;0.20;;
23115;SDS011;11727;52.134;5.052;2022-09-13T15:41:26;1.17;;;0.50;;
23115;SDS011;11727;52.134;5.052;2022-09-13T15:43:54;1.40;;;0.30;;
23115;SDS011;11727;52.134;5.052;2022-09-13T15:46:20;1.45;;;0.30;;
23115;SDS011;11727;52.134;5.052;2022-09-13T15:48:49;0.55;;;0.20;;
23115;SDS011;11727;52.134;5.052;2022-09-13T15:51:17;5.57;;;0.30;;
23115;SDS011;11727;52.134;5.052;2022-09-13T15:53:43;4.15;;;0.40;;
23115;SDS011;11727;52.134;5.052;2022-09-13T15:56:19;1.70;;;0.30;;
23115;SDS011;11727;52.134;5.052;2022-09-13T15:58:47;2.05;;;0.30;;
23115;SDS011;11727;52.134;5.052;2022-09-13T16:01:13;1.65;;;0.20;;
23115;SDS011;11727;52.134;5.052;2022-09-13T16:03:40;2.15;;;0.20;;
23115;SDS011;11727;52.134;5.052;2022-09-13T16:06:06;1.58;;;0.40;;
23115;SDS011;11727;52.134;5.052;2022-09-13T16:08:33;1.00;;;0.43;;
23115;SDS011;11727;52.134;5.052;2022-09-13T16:11:00;0.73;;;0.20;;
23115;SDS011;11727;52.134;5.052;2022-09-13T16:13:25;3.80;;;0.43;;
23115;SDS011;11727;52.134;5.052;2022-09-13T16:15:51;6.75;;;0.60;;
23115;SDS011;11727;52.134;5.052;2022-09-13T16:18:17;3.17;;;0.70;;
23115;SDS011;11727;52.134;5.052;2022-09-13T16:20:42;0.75;;;0.30;;
23115;SDS011;11727;52.134;5.052;2022-09-13T16:23:08;1.15;;;0.25;;
23115;SDS011;11727;52.134;5.052;2022-09-13T16:25:34;2.13;;;0.30;;
23115;SDS011;11727;52.134;5.052;2022-09-13T16:28:01;2.05;;;0.40;;
23115;SDS011;11727;52.134;5.052;2022-09-13T16:30:28;2.72;;;0.30;;
23115;SDS011;11727;52.134;5.052;2022-09-13T16:32:55;0.93;;;0.20;;
23115;SDS011;11727;52.134;5.052;2022-09-13T16:35:21;0.88;;;0.25;;
23115;SDS011;11727;52.134;5.052;2022-09-13T16:37:48;1.13;;;0.20;;
23115;SDS011;11727;52.134;5.052;2022-09-13T16:40:15;6.38;;;0.43;;
23115;SDS011;11727;52.134;5.052;2022-09-13T16:42:42;6.70;;;0.65;;
23115;SDS011;11727;52.134;5.052;2022-09-13T16:45:08;0.73;;;0.20;;
23115;SDS011;11727;52.134;5.052;2022-09-13T16:47:34;0.75;;;0.20;;
23115;SDS011;11727;52.134;5.052;2022-09-13T16:50:00;1.45;;;0.32;;
23115;SDS011;11727;52.134;5.052;2022-09-13T16:52:27;0.63;;;0.40;;
23115;SDS011;11727;52.134;5.052;2022-09-13T16:54:53;0.47;;;0.17;;
23115;SDS011;11727;52.134;5.052;2022-09-13T16:57:19;0.47;;;0.20;;
23115;SDS011;11727;52.134;5.052;2022-09-13T16:59:45;1.65;;;0.40;;
23115;SDS011;11727;52.134;5.052;2022-09-13T17:02:12;4.13;;;0.30;;
23115;SDS011;11727;52.134;5.052;2022-09-13T17:04:38;1.08;;;0.30;;
23115;SDS011;11727;52.134;5.052;2022-09-13T17:07:04;3.15;;;0.60;;
23115;SDS011;11727;52.134;5.052;2022-09-13T17:09:31;0.73;;;0.30;;
23115;SDS011;11727;52.134;5.052;2022-09-13T17:11:58;1.67;;;0.30;;
23115;SDS011;11727;52.134;5.052;2022-09-13T17:14:24;2.35;;;0.30;;
23115;SDS011;11727;52.134;5.052;2022-09-13T17:16:51;1.98;;;0.32;;
23115;SDS011;11727;52.134;5.052;2022-09-13T17:19:19;1.65;;;0.30;;
23115;SDS011;11727;52.134;5.052;2022-09-13T17:21:49;2.15;;;0.30;;
23115;SDS011;11727;52.134;5.052;2022-09-13T17:24:15;1.55;;;0.17;;
23115;SDS011;11727;52.134;5.052;2022-09-13T17:26:41;3.17;;;0.68;;
23115;SDS011;11727;52.134;5.052;2022-09-13T17:29:10;2.63;;;0.40;;
23115;SDS011;11727;52.134;5.052;2022-09-13T17:31:36;2.50;;;0.52;;
23115;SDS011;11727;52.134;5.052;2022-09-13T17:34:02;1.40;;;0.40;;
23115;SDS011;11727;52.134;5.052;2022-09-13T17:36:29;0.40;;;0.20;;
23115;SDS011;11727;52.134;5.052;2022-09-13T17:38:55;2.67;;;0.40;;
23115;SDS011;11727;52.134;5.052;2022-09-13T17:41:21;5.38;;;0.55;;
23115;SDS011;11727;52.134;5.052;2022-09-13T17:43:48;0.40;;;0.20;;
23115;SDS011;11727;52.134;5.052;2022-09-13T17:48:41;1.50;;;0.30;;
23115;SDS011;11727;52.134;5.052;2022-09-13T17:51:12;4.88;;;0.32;;
23115;SDS011;11727;52.134;5.052;2022-09-13T17:53:43;1.75;;;0.40;;
23115;SDS011;11727;52.134;5.052;2022-09-13T17:56:14;1.45;;;0.35;;
23115;SDS011;11727;52.134;5.052;2022-09-13T17:58:53;3.20;;;0.30;;
23115;SDS011;11727;52.134;5.052;2022-09-13T18:01:20;2.40;;;0.35;;
23115;SDS011;11727;52.134;5.052;2022-09-13T18:03:45;2.25;;;0.28;;
23115;SDS011;11727;52.134;5.052;2022-09-13T18:06:11;0.80;;;0.40;;
23115;SDS011;11727;52.134;5.052;2022-09-13T18:08:40;0.73;;;0.40;;
23115;SDS011;11727;52.134;5.052;2022-09-13T18:11:08;2.20;;;0.68;;
23115;SDS011;11727;52.134;5.052;2022-09-13T18:13:35;5.00;;;0.75;;
23115;SDS011;11727;52.134;5.052;2022-09-13T18:16:07;5.20;;;0.38;;